createdAt,value
2019-02-17T00:00:30.526Z,26.93
2019-02-17T00:02:59.762Z,28.23
2019-02-17T00:05:28.956Z,26.20
2019-02-17T00:07:58.130Z,26.40
2019-02-17T00:10:27.353Z,26.23
2019-02-17T00:12:56.543Z,26.13
2019-02-17T00:15:25.728Z,27.20
2019-02-17T00:17:55.416Z,28.27
2019-02-17T00:20:24.622Z,27.97
2019-02-17T00:22:53.836Z,26.57
2019-02-17T00:25:23.035Z,27.80
2019-02-17T00:27:52.526Z,27.73
2019-02-17T00:30:21.729Z,27.50
2019-02-17T00:32:50.912Z,26.47
2019-02-17T00:35:20.087Z,27.07
2019-02-17T00:37:49.339Z,25.03
2019-02-17T00:40:18.483Z,24.57
2019-02-17T00:43:05.906Z,24.73
2019-02-17T00:45:53.103Z,22.87
2019-02-17T00:48:22.307Z,23.37
2019-02-17T00:50:51.490Z,24.40
2019-02-17T00:53:20.700Z,23.07
2019-02-17T00:55:49.817Z,23.10
2019-02-17T00:58:19.018Z,22.33
2019-02-17T01:00:48.219Z,22.83
2019-02-17T01:03:17.475Z,23.07
2019-02-17T01:05:47.229Z,22.80
2019-02-17T01:08:16.600Z,23.90
2019-02-17T01:10:45.782Z,22.47
2019-02-17T01:13:14.963Z,24.03
2019-02-17T01:15:44.170Z,23.07
2019-02-17T01:18:13.359Z,23.17
2019-02-17T01:20:42.538Z,24.37
2019-02-17T01:23:11.752Z,22.47
2019-02-17T01:25:40.934Z,23.03
2019-02-17T01:28:10.115Z,22.87
2019-02-17T01:30:39.312Z,22.23
2019-02-17T01:33:08.488Z,23.17
2019-02-17T01:35:37.667Z,22.40
2019-02-17T01:38:06.860Z,22.47
2019-02-17T01:40:36.046Z,21.57
2019-02-17T01:43:05.253Z,23.43
2019-02-17T01:45:34.432Z,23.00
2019-02-17T01:48:03.618Z,21.43
2019-02-17T01:50:32.825Z,21.17
2019-02-17T01:53:02.005Z,21.07
2019-02-17T01:55:31.185Z,21.43
2019-02-17T01:58:00.405Z,22.73
2019-02-17T02:00:29.590Z,22.40
2019-02-17T02:02:58.825Z,22.77
2019-02-17T02:05:28.393Z,21.80
2019-02-17T02:07:57.574Z,21.47
2019-02-17T02:10:26.771Z,22.40
2019-02-17T02:12:55.990Z,22.90
2019-02-17T02:15:25.251Z,22.63
2019-02-17T02:17:54.428Z,21.63
2019-02-17T02:20:23.644Z,22.27
2019-02-17T02:22:52.894Z,21.87
2019-02-17T02:25:22.085Z,22.50
2019-02-17T02:27:51.287Z,21.90
2019-02-17T02:30:20.466Z,23.23
2019-02-17T02:32:49.645Z,22.37
2019-02-17T02:35:18.871Z,22.27
2019-02-17T02:37:48.026Z,21.33
2019-02-17T02:40:17.202Z,22.90
2019-02-17T02:42:46.400Z,23.33
2019-02-17T02:45:15.589Z,22.73
2019-02-17T02:47:44.761Z,21.67
2019-02-17T02:50:13.966Z,23.83
2019-02-17T02:52:43.147Z,23.13
2019-02-17T02:55:12.320Z,24.43
2019-02-17T02:57:41.536Z,23.63
2019-02-17T03:00:11.961Z,23.53
2019-02-17T03:02:41.134Z,22.30
2019-02-17T03:05:10.512Z,24.50
2019-02-17T03:07:39.704Z,24.47
2019-02-17T03:10:09.731Z,24.70
2019-02-17T03:12:38.932Z,24.40
2019-02-17T03:15:09.315Z,24.00
2019-02-17T03:17:38.522Z,24.67
2019-02-17T03:20:09.776Z,23.60
2019-02-17T03:22:38.953Z,23.70
2019-02-17T03:25:08.274Z,24.23
2019-02-17T03:27:37.481Z,24.23
2019-02-17T03:30:09.495Z,23.53
2019-02-17T03:32:38.694Z,24.10
2019-02-17T03:35:08.530Z,23.43
2019-02-17T03:37:37.746Z,24.63
2019-02-17T03:40:08.877Z,23.23
2019-02-17T03:42:38.075Z,24.80
2019-02-17T03:45:09.884Z,23.70
2019-02-17T03:47:39.092Z,22.43
2019-02-17T03:50:08.915Z,22.50
2019-02-17T03:52:38.110Z,23.07
2019-02-17T03:55:07.306Z,21.70
2019-02-17T03:57:36.477Z,23.63
2019-02-17T04:00:16.411Z,23.93
2019-02-17T04:02:38.401Z,22.33
2019-02-17T04:05:08.606Z,24.93
2019-02-17T04:07:37.808Z,22.67
2019-02-17T04:10:07.660Z,24.40
2019-02-17T04:12:36.876Z,22.60
2019-02-17T04:15:07.190Z,22.83
2019-02-17T04:17:36.284Z,22.17
2019-02-17T04:20:06.935Z,22.53
2019-02-17T04:22:36.113Z,22.27
2019-02-17T04:25:06.734Z,22.73
2019-02-17T04:27:35.950Z,22.33
2019-02-17T04:30:06.169Z,23.83
2019-02-17T04:32:35.338Z,21.73
2019-02-17T04:35:05.408Z,22.97
2019-02-17T04:37:34.603Z,22.60
2019-02-17T04:40:04.607Z,23.20
2019-02-17T04:42:33.791Z,22.30
2019-02-17T04:45:03.044Z,22.97
2019-02-17T04:47:32.231Z,22.23
2019-02-17T04:50:01.439Z,22.97
2019-02-17T04:52:30.633Z,23.60
2019-02-17T04:55:00.534Z,22.40
2019-02-17T04:57:29.735Z,23.20
2019-02-17T04:59:58.938Z,23.20
2019-02-17T05:02:28.129Z,21.73
2019-02-17T05:04:57.329Z,22.63
2019-02-17T05:07:26.524Z,23.13
2019-02-17T05:09:55.715Z,23.73
2019-02-17T05:12:24.921Z,23.53
2019-02-17T05:14:54.103Z,22.07
2019-02-17T05:17:23.291Z,24.47
2019-02-17T05:19:52.488Z,21.53
2019-02-17T05:22:21.682Z,22.87
2019-02-17T05:24:50.951Z,22.97
2019-02-17T05:27:20.155Z,23.03
2019-02-17T05:29:49.329Z,23.20
2019-02-17T05:32:18.512Z,23.23
2019-02-17T05:34:47.715Z,22.73
2019-02-17T05:37:16.895Z,23.33
2019-02-17T05:39:46.067Z,22.73
2019-02-17T05:42:15.276Z,23.17
2019-02-17T05:44:44.450Z,21.47
2019-02-17T05:47:13.629Z,21.83
2019-02-17T05:49:42.835Z,23.03
2019-02-17T05:52:12.023Z,22.23
2019-02-17T05:54:41.416Z,22.90
2019-02-17T05:57:10.626Z,21.77
2019-02-17T05:59:39.814Z,22.97
2019-02-17T06:02:09.102Z,21.93
2019-02-17T06:04:38.256Z,21.53
2019-02-17T06:07:07.430Z,21.87
2019-02-17T06:09:36.607Z,22.57
2019-02-17T06:12:09.427Z,22.13
2019-02-17T06:14:36.716Z,22.73
2019-02-17T06:17:05.886Z,22.13
2019-02-17T06:19:35.077Z,22.50
2019-02-17T06:22:04.274Z,22.87
2019-02-17T06:24:34.221Z,21.40
2019-02-17T06:27:03.421Z,20.90
2019-02-17T06:29:32.605Z,22.27
2019-02-17T06:32:01.803Z,21.40
2019-02-17T06:34:30.907Z,22.83
2019-02-17T06:37:00.088Z,22.50
2019-02-17T06:39:29.275Z,22.32
2019-02-17T06:41:58.481Z,22.30
2019-02-17T06:44:27.658Z,23.30
2019-02-17T06:46:57.798Z,23.40
2019-02-17T06:49:27.043Z,22.13
2019-02-17T06:51:56.218Z,23.27
2019-02-17T06:54:25.477Z,22.70
2019-02-17T06:56:56.260Z,22.45
2019-02-17T06:59:25.455Z,21.48
2019-02-17T07:01:54.649Z,23.98
2019-02-17T07:04:25.509Z,22.98
2019-02-17T07:06:56.336Z,21.77
2019-02-17T07:09:25.494Z,22.48
2019-02-17T07:11:56.809Z,22.67
2019-02-17T07:14:25.595Z,24.20
2019-02-17T07:16:54.788Z,22.07
2019-02-17T07:19:24.008Z,22.15
2019-02-17T07:21:53.197Z,22.50
2019-02-17T07:24:22.394Z,21.93
2019-02-17T07:26:51.622Z,22.13
2019-02-17T07:29:20.810Z,21.42
2019-02-17T07:31:50.002Z,21.75
2019-02-17T07:34:19.206Z,20.45
2019-02-17T07:36:48.395Z,20.57
2019-02-17T07:39:17.590Z,22.20
2019-02-17T07:41:46.793Z,21.93
2019-02-17T07:44:15.985Z,21.15
2019-02-17T07:46:45.169Z,21.42
2019-02-17T07:49:14.406Z,19.83
2019-02-17T07:51:43.592Z,20.60
2019-02-17T07:54:12.781Z,21.43
2019-02-17T07:56:42.096Z,20.27
2019-02-17T07:59:11.275Z,21.50
2019-02-17T08:01:45.296Z,20.43
2019-02-17T08:04:11.365Z,21.13
2019-02-17T08:06:40.531Z,19.83
2019-02-17T08:09:09.668Z,21.27
2019-02-17T08:11:38.844Z,19.97
2019-02-17T08:14:08.028Z,19.83
2019-02-17T08:16:37.462Z,19.73
2019-02-17T08:19:06.658Z,20.67
2019-02-17T08:21:35.830Z,21.33
2019-02-17T08:24:05.086Z,21.23
2019-02-17T08:26:34.275Z,21.03
2019-02-17T08:29:03.453Z,20.33
2019-02-17T08:31:32.732Z,20.43
2019-02-17T08:34:01.834Z,20.27
2019-02-17T08:36:31.014Z,21.27
2019-02-17T08:39:00.272Z,20.60
2019-02-17T08:41:29.464Z,19.20
2019-02-17T08:44:00.856Z,20.03
2019-02-17T08:46:29.515Z,20.03
2019-02-17T08:48:58.653Z,20.13
2019-02-17T08:51:27.843Z,20.90
2019-02-17T08:53:57.196Z,21.23
2019-02-17T08:56:26.436Z,19.80
2019-02-17T08:58:55.624Z,19.70
2019-02-17T09:01:24.829Z,19.23
2019-02-17T09:03:54.012Z,19.17
2019-02-17T09:06:23.197Z,17.63
2019-02-17T09:08:52.416Z,20.37
2019-02-17T09:11:21.597Z,18.10
2019-02-17T09:13:50.782Z,17.53
2019-02-17T09:16:19.999Z,17.80
2019-02-17T09:18:49.193Z,17.97
2019-02-17T09:21:18.395Z,17.60
2019-02-17T09:23:47.605Z,17.87
2019-02-17T09:26:16.793Z,18.23
2019-02-17T09:28:45.987Z,19.00
2019-02-17T09:31:15.191Z,17.47
2019-02-17T09:33:44.382Z,17.87
2019-02-17T09:36:13.565Z,17.07
2019-02-17T09:38:42.700Z,18.27
2019-02-17T09:41:11.898Z,17.17
2019-02-17T09:43:41.090Z,16.30
2019-02-17T09:46:10.293Z,17.27
2019-02-17T09:48:39.479Z,17.90
2019-02-17T09:51:08.679Z,19.73
2019-02-17T09:53:37.874Z,18.30
2019-02-17T09:56:07.070Z,18.60
2019-02-17T09:58:36.273Z,18.33
2019-02-17T10:01:05.454Z,17.23
2019-02-17T10:03:34.638Z,17.53
2019-02-17T10:06:03.899Z,18.10
2019-02-17T10:08:33.117Z,17.70
2019-02-17T10:11:02.296Z,16.73
2019-02-17T10:13:31.615Z,17.30
2019-02-17T10:16:00.795Z,17.20
2019-02-17T10:18:30.072Z,17.40
2019-02-17T10:20:59.321Z,17.77
2019-02-17T10:23:28.479Z,17.63
2019-02-17T10:25:57.665Z,17.90
2019-02-17T10:28:26.881Z,18.37
2019-02-17T10:30:56.081Z,18.43
2019-02-17T10:33:25.267Z,18.07
2019-02-17T10:35:54.490Z,17.43
2019-02-17T10:38:23.667Z,18.17
2019-02-17T10:40:52.879Z,18.77
2019-02-17T10:43:22.092Z,19.03
2019-02-17T10:45:51.274Z,18.43
2019-02-17T10:48:20.434Z,18.77
2019-02-17T10:50:49.668Z,17.27
2019-02-17T10:53:18.865Z,18.57
2019-02-17T10:55:48.047Z,18.70
2019-02-17T10:58:17.257Z,19.30
2019-02-17T11:00:46.453Z,18.63
2019-02-17T11:03:15.636Z,19.03
2019-02-17T11:05:44.853Z,18.77
2019-02-17T11:08:14.061Z,18.20
2019-02-17T11:10:43.283Z,18.87
2019-02-17T11:13:12.469Z,20.10
2019-02-17T11:15:41.669Z,19.00
2019-02-17T11:18:10.871Z,19.33
2019-02-17T11:20:40.044Z,19.60
2019-02-17T11:23:09.241Z,19.13
2019-02-17T11:25:38.439Z,20.17
2019-02-17T11:28:07.630Z,20.57
2019-02-17T11:30:36.843Z,20.27
2019-02-17T11:33:06.025Z,18.97
2019-02-17T11:35:35.216Z,19.70
2019-02-17T11:38:04.404Z,19.90
2019-02-17T11:40:33.617Z,20.67
2019-02-17T11:43:02.834Z,20.53
2019-02-17T11:45:32.153Z,20.50
2019-02-17T11:48:01.337Z,21.10
2019-02-17T11:50:30.560Z,20.90
2019-02-17T11:52:59.753Z,20.67
2019-02-17T11:55:28.950Z,21.20
2019-02-17T11:57:58.175Z,21.70
2019-02-17T12:00:27.367Z,21.97
2019-02-17T12:02:56.569Z,20.90
2019-02-17T12:05:25.759Z,20.50
2019-02-17T12:07:54.962Z,20.73
2019-02-17T12:10:24.156Z,21.73
2019-02-17T12:12:53.699Z,21.80
2019-02-17T12:15:22.969Z,22.30
2019-02-17T12:17:52.165Z,21.80
2019-02-17T12:20:38.428Z,21.10
2019-02-17T12:23:09.273Z,20.83
2019-02-17T12:25:40.090Z,20.33
2019-02-17T12:28:16.679Z,21.70
2019-02-17T12:30:47.506Z,20.17
2019-02-17T12:33:20.596Z,21.90
2019-02-17T12:35:47.614Z,21.30
2019-02-17T12:38:16.799Z,20.93
2019-02-17T12:40:45.990Z,20.43
2019-02-17T12:43:15.188Z,19.87
2019-02-17T12:45:44.367Z,20.57
2019-02-17T12:48:13.552Z,20.30
2019-02-17T12:50:42.764Z,20.83
2019-02-17T12:53:12.023Z,20.03
2019-02-17T12:55:41.206Z,20.57
2019-02-17T12:58:10.416Z,21.87
2019-02-17T13:00:57.638Z,21.43
2019-02-17T13:03:28.768Z,19.73
2019-02-17T13:05:57.746Z,19.60
2019-02-17T13:08:26.970Z,19.43
2019-02-17T13:10:56.167Z,19.33
2019-02-17T13:13:25.360Z,19.57
2019-02-17T13:15:54.562Z,19.53
2019-02-17T13:18:23.743Z,17.67
2019-02-17T13:20:52.942Z,18.23
2019-02-17T13:23:22.138Z,19.50
2019-02-17T13:25:51.259Z,17.60
2019-02-17T13:28:20.481Z,18.27
2019-02-17T13:30:49.729Z,17.17
2019-02-17T13:33:18.915Z,17.37
2019-02-17T13:35:48.129Z,19.30
2019-02-17T13:38:17.306Z,17.57
2019-02-17T13:40:46.508Z,17.53
2019-02-17T13:43:15.728Z,16.87
2019-02-17T13:45:45.003Z,16.53
2019-02-17T13:48:14.176Z,16.60
2019-02-17T13:50:43.376Z,16.60
2019-02-17T13:53:12.567Z,16.60
2019-02-17T13:55:41.849Z,16.83
2019-02-17T13:58:11.052Z,16.67
2019-02-17T14:00:40.282Z,16.47
2019-02-17T14:03:09.486Z,15.93
2019-02-17T14:05:38.665Z,15.67
2019-02-17T14:08:07.880Z,15.90
2019-02-17T14:10:37.058Z,14.80
2019-02-17T14:13:06.255Z,15.47
2019-02-17T14:15:35.457Z,13.63
2019-02-17T14:18:04.647Z,13.27
2019-02-17T14:20:33.840Z,13.37
2019-02-17T14:23:03.038Z,13.13
2019-02-17T14:25:32.230Z,14.07
2019-02-17T14:28:01.426Z,14.27
2019-02-17T14:30:30.641Z,13.67
2019-02-17T14:32:59.805Z,13.33
2019-02-17T14:35:28.987Z,13.87
2019-02-17T14:37:58.199Z,13.23
2019-02-17T14:40:27.384Z,14.10
2019-02-17T14:42:56.571Z,14.50
2019-02-17T14:45:25.794Z,13.77
2019-02-17T14:47:54.965Z,14.87
2019-02-17T14:50:24.214Z,14.80
2019-02-17T14:52:53.413Z,14.77
2019-02-17T14:55:22.609Z,14.87
2019-02-17T14:57:51.803Z,14.77
2019-02-17T15:00:20.980Z,16.17
2019-02-17T15:02:50.259Z,14.43
2019-02-17T15:05:19.472Z,15.30
2019-02-17T15:07:48.661Z,15.27
2019-02-17T15:10:17.866Z,15.23
2019-02-17T15:12:47.110Z,15.20
2019-02-17T15:15:16.943Z,15.90
2019-02-17T15:17:46.141Z,15.50
2019-02-17T15:20:18.222Z,15.00
2019-02-17T15:22:47.389Z,15.47
2019-02-17T15:25:16.583Z,15.70
2019-02-17T15:27:45.799Z,14.90
2019-02-17T15:30:17.890Z,14.83
2019-02-17T15:32:47.434Z,16.33
2019-02-17T15:35:16.618Z,15.67
2019-02-17T15:37:45.821Z,16.50
2019-02-17T15:40:15.659Z,16.07
2019-02-17T15:42:44.859Z,14.53
2019-02-17T15:45:14.783Z,15.10
2019-02-17T15:47:43.986Z,14.47
2019-02-17T15:50:14.438Z,14.20
2019-02-17T15:52:43.638Z,14.63
2019-02-17T15:55:14.057Z,15.20
2019-02-17T15:57:43.437Z,15.10
2019-02-17T16:00:15.150Z,14.87
2019-02-17T16:02:44.419Z,14.40
2019-02-17T16:05:13.681Z,14.37
2019-02-17T16:07:42.869Z,13.97
2019-02-17T16:10:14.459Z,15.17
2019-02-17T16:12:43.966Z,14.00
2019-02-17T16:15:16.277Z,14.07
2019-02-17T16:17:45.457Z,13.67
2019-02-17T16:20:14.934Z,14.27
2019-02-17T16:22:44.122Z,14.13
2019-02-17T16:25:13.665Z,13.47
2019-02-17T16:27:42.853Z,13.17
2019-02-17T16:30:16.841Z,13.03
2019-02-17T16:32:46.049Z,13.57
2019-02-17T16:35:15.248Z,13.73
2019-02-17T16:37:44.440Z,12.97
2019-02-17T16:40:15.261Z,12.47
2019-02-17T16:42:44.514Z,13.30
2019-02-17T16:45:14.640Z,13.20
2019-02-17T16:47:44.686Z,12.90
2019-02-17T16:50:21.787Z,13.73
2019-02-17T16:52:51.002Z,12.37
2019-02-17T16:55:20.194Z,13.20
2019-02-17T16:57:49.379Z,13.40
2019-02-17T17:00:23.144Z,13.47
2019-02-17T17:02:56.938Z,13.10
2019-02-17T17:05:26.315Z,13.00
2019-02-17T17:07:55.504Z,14.60
2019-02-17T17:10:24.767Z,13.73
2019-02-17T17:12:54.007Z,14.80
2019-02-17T17:15:23.199Z,13.77
2019-02-17T17:17:52.386Z,14.57
2019-02-17T17:20:22.635Z,13.67
2019-02-17T17:22:51.817Z,14.50
2019-02-17T17:25:21.008Z,14.27
2019-02-17T17:27:50.289Z,13.40
2019-02-17T17:30:19.941Z,12.90
2019-02-17T17:32:49.127Z,12.67
2019-02-17T17:35:18.336Z,13.27
2019-02-17T17:37:47.520Z,12.93
2019-02-17T17:40:17.880Z,13.00
2019-02-17T17:42:47.091Z,13.67
2019-02-17T17:45:20.910Z,13.67
2019-02-17T17:47:50.095Z,11.53
2019-02-17T17:50:19.353Z,11.33
2019-02-17T17:52:48.552Z,12.20
2019-02-17T17:55:17.804Z,10.43
2019-02-17T17:57:47.003Z,11.57
2019-02-17T18:00:21.390Z,11.47
2019-02-17T18:02:50.591Z,11.33
2019-02-17T18:05:19.758Z,10.67
2019-02-17T18:07:48.945Z,10.97
2019-02-17T18:10:18.156Z,11.60
2019-02-17T18:12:47.385Z,11.33
2019-02-17T18:15:18.426Z,12.37
2019-02-17T18:17:54.334Z,11.60
2019-02-17T18:20:18.574Z,10.70
2019-02-17T18:22:47.759Z,11.00
2019-02-17T18:25:16.963Z,11.20
2019-02-17T18:27:46.160Z,10.77
2019-02-17T18:30:21.583Z,10.93
2019-02-17T18:32:50.805Z,11.07
2019-02-17T18:35:20.736Z,10.73
2019-02-17T18:37:50.160Z,11.50
2019-02-17T18:40:20.226Z,11.67
2019-02-17T18:42:49.556Z,11.30
2019-02-17T18:45:18.752Z,10.83
2019-02-17T18:47:48.032Z,10.93
2019-02-17T18:50:18.619Z,11.40
2019-02-17T18:52:48.046Z,11.10
2019-02-17T18:55:17.378Z,11.13
2019-02-17T18:57:50.859Z,9.73
2019-02-17T19:00:25.404Z,11.50
2019-02-17T19:02:54.653Z,11.70
2019-02-17T19:05:31.576Z,10.87
2019-02-17T19:07:55.579Z,11.33
2019-02-17T19:10:24.849Z,10.87
2019-02-17T19:12:54.104Z,11.93
2019-02-17T19:15:23.325Z,10.60
2019-02-17T19:17:52.503Z,10.40
2019-02-17T19:20:27.404Z,10.83
2019-02-17T19:22:56.577Z,10.00
2019-02-17T19:25:25.765Z,10.37
2019-02-17T19:27:55.133Z,10.10
2019-02-17T19:30:27.283Z,10.23
2019-02-17T19:32:56.475Z,10.87
2019-02-17T19:35:25.944Z,10.67
2019-02-17T19:37:55.137Z,11.13
2019-02-17T19:40:24.329Z,10.13
2019-02-17T19:42:53.552Z,10.43
2019-02-17T19:45:22.743Z,11.00
2019-02-17T19:47:51.946Z,11.33
2019-02-17T19:50:21.232Z,11.53
2019-02-17T19:52:50.528Z,11.10
2019-02-17T19:55:19.731Z,10.60
2019-02-17T19:57:49.169Z,11.23
2019-02-17T20:00:20.299Z,11.03
2019-02-17T20:03:18.657Z,11.17
2019-02-17T20:05:52.534Z,12.20
2019-02-17T20:08:21.713Z,11.30
2019-02-17T20:10:50.926Z,11.20
2019-02-17T20:13:20.119Z,11.90
2019-02-17T20:15:49.307Z,11.03
2019-02-17T20:18:18.533Z,11.30
2019-02-17T20:20:47.723Z,10.77
2019-02-17T20:23:16.994Z,12.23
2019-02-17T20:25:46.199Z,11.37
2019-02-17T20:28:15.384Z,11.47
2019-02-17T20:30:44.578Z,11.23
2019-02-17T20:33:13.780Z,11.93
2019-02-17T20:35:42.980Z,11.00
2019-02-17T20:38:12.172Z,10.70
2019-02-17T20:40:41.367Z,11.23
2019-02-17T20:43:10.578Z,10.07
2019-02-17T20:45:39.780Z,12.20
2019-02-17T20:48:08.973Z,11.07
2019-02-17T20:50:38.255Z,10.67
2019-02-17T20:53:07.451Z,11.10
2019-02-17T20:55:36.630Z,11.37
2019-02-17T20:58:05.835Z,10.83
2019-02-17T21:00:35.034Z,11.60
2019-02-17T21:03:04.301Z,11.53
2019-02-17T21:05:33.508Z,12.03
2019-02-17T21:08:02.689Z,10.60
2019-02-17T21:10:32.142Z,12.40
2019-02-17T21:13:01.353Z,12.03
2019-02-17T21:15:30.529Z,10.67
2019-02-17T21:17:59.747Z,12.07
2019-02-17T21:20:29.015Z,12.07
2019-02-17T21:22:58.207Z,13.07
2019-02-17T21:25:27.397Z,12.43
2019-02-17T21:27:56.616Z,12.97
2019-02-17T21:30:25.836Z,12.77
2019-02-17T21:32:55.015Z,13.10
2019-02-17T21:35:24.209Z,11.63
2019-02-17T21:37:53.398Z,11.70
2019-02-17T21:40:22.583Z,12.53
2019-02-17T21:42:51.801Z,12.27
2019-02-17T21:45:21.013Z,11.93
2019-02-17T21:47:50.284Z,12.30
2019-02-17T21:50:19.485Z,12.07
2019-02-17T21:52:48.676Z,12.33
2019-02-17T21:55:17.915Z,12.10
2019-02-17T21:57:47.094Z,12.83
2019-02-17T22:00:19.763Z,12.63
2019-02-17T22:02:49.488Z,11.93
2019-02-17T22:05:19.644Z,11.93
2019-02-17T22:07:48.835Z,12.53
2019-02-17T22:10:19.372Z,11.93
2019-02-17T22:12:51.109Z,12.13
2019-02-17T22:15:21.818Z,11.53
2019-02-17T22:17:51.053Z,13.30
2019-02-17T22:20:20.243Z,12.30
2019-02-17T22:22:49.437Z,13.50
2019-02-17T22:25:20.451Z,13.57
2019-02-17T22:27:49.646Z,13.43
2019-02-17T22:30:18.826Z,12.20
2019-02-17T22:32:48.041Z,13.90
2019-02-17T22:35:17.222Z,13.07
2019-02-17T22:37:46.421Z,12.57
2019-02-17T22:40:16.084Z,13.43
2019-02-17T22:42:45.320Z,13.47
2019-02-17T22:45:14.699Z,13.93
2019-02-17T22:47:43.968Z,13.90
2019-02-17T22:50:16.261Z,13.60
2019-02-17T22:52:45.638Z,14.30
2019-02-17T22:55:15.278Z,14.80
2019-02-17T22:57:44.462Z,13.07
2019-02-17T23:00:52.797Z,13.47
2019-02-17T23:03:22.219Z,12.83
2019-02-17T23:05:51.409Z,12.67
2019-02-17T23:08:20.614Z,12.53
2019-02-17T23:10:49.802Z,13.03
2019-02-17T23:13:19.002Z,12.77
2019-02-17T23:15:48.226Z,13.90
2019-02-17T23:18:17.410Z,14.93
2019-02-17T23:20:46.594Z,14.83
2019-02-17T23:23:15.816Z,15.47
2019-02-17T23:25:45.000Z,15.07
2019-02-17T23:28:14.183Z,14.87
2019-02-17T23:30:43.383Z,13.73
2019-02-17T23:33:12.563Z,13.63
2019-02-17T23:35:41.805Z,14.23
2019-02-17T23:38:10.976Z,13.90
2019-02-17T23:40:40.174Z,12.60
2019-02-17T23:43:09.362Z,13.67
2019-02-17T23:45:38.621Z,13.60
2019-02-17T23:48:07.885Z,14.17
2019-02-17T23:50:37.079Z,13.50
2019-02-17T23:53:06.251Z,12.23
2019-02-17T23:55:35.435Z,12.73
2019-02-17T23:58:04.739Z,13.30
